Portada
METAR-TAF:

METAR-TAF

Aeroports :

Kitakyushu, Japó

latitud: 33-50N, longitud: 130-57E, altitud: 3 m

Observació

L'informe es va fer fa 21 minuts, a les 19:26 UTC
Vent 5 kt del Nord/Nord-Est
Temperatura 9°C
Humitat 87%
Pressió 1014 hPa
Visibilitat: 8000 m
Escasses núvols a una alçada de 800 ft
Cel ennuvolat a una alçada de 4500 ft
pluja

METAR: RJFR 181926Z 03005KT 8000 -RA FEW008 BKN045 09/07 Q1014 RMK 2ST008 7SC045 A2997

Hora: 04:47 (19:47 UTC)

Pronòstic

L'informe es va fer fa 2 hores i 42 minuts, a les 17:05 UTC
Pronòstic vàlid del 18 a les 18 UTC al 20 a les 00 UTC
Vent 5 kt del Nord
Visibilitat 10 km o més
Escasses núvols a una alçada de 1500 ft
Cel ennuvolat a una alçada de 3500 ft
Evolucionant progressivament
l' 19 a les 03 UTC al 19 a les 05 UTC
Vent 15 kt del Nord-Oest
Evolucionant progressivament
l' 19 a les 09 UTC al 19 a les 12 UTC
Vent 4 kt del Sud-Est

TAF: RJFR 181705Z 1818/2000 35005KT 9999 FEW015 BKN035 BECMG 1903/1905 31015KT BECMG 1909/1912 14004KT

Observacions i pronòstics meteorològics de més de 4000 aeroports (METAR i TAF).

Les estacions disponibles són els punts grocs i vermells al mapa.

Posi el ratolí al punt desitjat per veure el nom de l'estació.

Feu clic per veure les observacions i els pronòstics meteorològics.

Per canviar el mapa: feu clic els botons verds amb una creu de color negre per apropar; al botó verd amb un guió per allunyar la imatge; o en les fletxes verdes per a mapes adjacents.


METAR-TAF: